San Francisco, California
Traffic Map
Current Weather Conditions
San Francisco, California
Scattered Clouds
Scattered Clouds
54°
Feels Like: 54°
Wind Chill: 54° Ceiling: Unl
Heat Index: 54° Visibility: 10mi
Dew Point: 47° Wind: 9mph
Humidity: 77% Direction: 270° (W)
Pressure: 30.29in Gusts: 0mph
Raw Report DataKSFO 140956Z 27008KT 10SM SCT200 12/08 A3029 RMK AO2 SLP257 T01220083 $
Traffic Incident Summary
Active as of:
Severity:
Category:
InformationThere was an issue retrieving the traffic information for this location. Please try a different location or try again shortly.
Advertisements
Track Severe Weather on mobile